sensor_id;sensor_type;location;lat;lon;timestamp;noise_LAeq;noise_LA_min;noise_LA_max;noise_LA01;noise_LA95
77361;Laerm;66427;51.798;10.954;2023-02-15T00:00:30;48.27;28.54;64.21;;
77361;Laerm;66427;51.798;10.954;2023-02-15T00:02:56;28.88;27.84;31.88;;
77361;Laerm;66427;51.798;10.954;2023-02-15T00:05:22;35.87;28.43;46.34;;
77361;Laerm;66427;51.798;10.954;2023-02-15T00:07:48;34.36;29.87;41.89;;
77361;Laerm;66427;51.798;10.954;2023-02-15T00:10:17;34.29;29.39;40.06;;
77361;Laerm;66427;51.798;10.954;2023-02-15T00:12:45;34.81;28.07;44.41;;
77361;Laerm;66427;51.798;10.954;2023-02-15T00:15:11;31.94;27.93;39.40;;
77361;Laerm;66427;51.798;10.954;2023-02-15T00:17:37;29.85;27.64;39.78;;
77361;Laerm;66427;51.798;10.954;2023-02-15T00:20:02;39.22;29.16;46.73;;
77361;Laerm;66427;51.798;10.954;2023-02-15T00:22:28;38.14;29.06;46.55;;
77361;Laerm;66427;51.798;10.954;2023-02-15T00:24:54;48.98;28.09;65.77;;
77361;Laerm;66427;51.798;10.954;2023-02-15T00:27:20;34.86;28.02;44.83;;
77361;Laerm;66427;51.798;10.954;2023-02-15T00:29:46;34.51;27.92;46.72;;
77361;Laerm;66427;51.798;10.954;2023-02-15T00:32:17;34.81;27.61;47.80;;
77361;Laerm;66427;51.798;10.954;2023-02-15T00:34:48;29.01;27.58;39.07;;
77361;Laerm;66427;51.798;10.954;2023-02-15T00:37:19;44.24;28.22;66.77;;
77361;Laerm;66427;51.798;10.954;2023-02-15T00:39:47;29.02;27.47;32.40;;
77361;Laerm;66427;51.798;10.954;2023-02-15T00:42:13;36.29;27.64;46.65;;
77361;Laerm;66427;51.798;10.954;2023-02-15T00:44:39;40.47;29.29;48.53;;
77361;Laerm;66427;51.798;10.954;2023-02-15T00:47:05;42.03;29.66;51.00;;
77361;Laerm;66427;51.798;10.954;2023-02-15T00:49:30;28.60;27.58;37.28;;
77361;Laerm;66427;51.798;10.954;2023-02-15T00:51:56;37.19;27.97;46.74;;
77361;Laerm;66427;51.798;10.954;2023-02-15T00:54:26;38.62;28.51;48.34;;
77361;Laerm;66427;51.798;10.954;2023-02-15T00:56:54;33.27;28.12;42.87;;
77361;Laerm;66427;51.798;10.954;2023-02-15T00:59:20;36.60;28.75;45.97;;
77361;Laerm;66427;51.798;10.954;2023-02-15T01:01:46;37.48;29.43;46.77;;
77361;Laerm;66427;51.798;10.954;2023-02-15T01:04:12;38.90;28.60;46.84;;
77361;Laerm;66427;51.798;10.954;2023-02-15T01:06:41;38.51;28.10;48.95;;
77361;Laerm;66427;51.798;10.954;2023-02-15T01:09:09;29.30;27.93;34.28;;
77361;Laerm;66427;51.798;10.954;2023-02-15T01:11:35;41.43;29.20;49.49;;
77361;Laerm;66427;51.798;10.954;2023-02-15T01:14:01;32.96;28.84;42.70;;
77361;Laerm;66427;51.798;10.954;2023-02-15T01:16:27;35.16;29.18;42.55;;
77361;Laerm;66427;51.798;10.954;2023-02-15T01:18:53;36.20;28.85;44.46;;
77361;Laerm;66427;51.798;10.954;2023-02-15T01:21:20;39.59;28.65;48.73;;
77361;Laerm;66427;51.798;10.954;2023-02-15T01:23:51;36.45;28.73;47.92;;
77361;Laerm;66427;51.798;10.954;2023-02-15T01:26:19;39.67;29.99;48.01;;
77361;Laerm;66427;51.798;10.954;2023-02-15T01:28:45;37.60;31.05;45.78;;
77361;Laerm;66427;51.798;10.954;2023-02-15T01:31:12;34.75;28.61;43.90;;
77361;Laerm;66427;51.798;10.954;2023-02-15T01:33:40;41.17;28.84;53.64;;
77361;Laerm;66427;51.798;10.954;2023-02-15T01:36:06;43.23;35.10;54.65;;
77361;Laerm;66427;51.798;10.954;2023-02-15T01:38:32;38.31;28.13;47.11;;
77361;Laerm;66427;51.798;10.954;2023-02-15T01:41:02;32.86;27.71;44.07;;
77361;Laerm;66427;51.798;10.954;2023-02-15T01:43:43;35.25;28.61;45.07;;
77361;Laerm;66427;51.798;10.954;2023-02-15T01:46:09;37.50;29.72;48.48;;
77361;Laerm;66427;51.798;10.954;2023-02-15T01:48:38;51.66;32.56;68.60;;
77361;Laerm;66427;51.798;10.954;2023-02-15T01:51:07;39.77;31.23;50.70;;
77361;Laerm;66427;51.798;10.954;2023-02-15T01:53:38;36.11;28.52;47.24;;
77361;Laerm;66427;51.798;10.954;2023-02-15T01:56:09;30.82;27.42;39.85;;
77361;Laerm;66427;51.798;10.954;2023-02-15T01:58:36;34.50;28.18;45.72;;
77361;Laerm;66427;51.798;10.954;2023-02-15T02:01:02;34.76;28.52;45.12;;
77361;Laerm;66427;51.798;10.954;2023-02-15T02:03:36;31.69;27.84;42.45;;
77361;Laerm;66427;51.798;10.954;2023-02-15T02:06:08;32.81;28.36;42.12;;
77361;Laerm;66427;51.798;10.954;2023-02-15T02:08:36;31.64;28.53;37.50;;
77361;Laerm;66427;51.798;10.954;2023-02-15T02:11:02;29.86;28.21;33.51;;
77361;Laerm;66427;51.798;10.954;2023-02-15T02:13:28;31.67;28.24;37.71;;
77361;Laerm;66427;51.798;10.954;2023-02-15T02:15:58;32.73;28.26;41.02;;
77361;Laerm;66427;51.798;10.954;2023-02-15T02:18:41;31.87;28.48;41.71;;
77361;Laerm;66427;51.798;10.954;2023-02-15T02:26:33;33.76;28.14;46.38;;
77361;Laerm;66427;51.798;10.954;2023-02-15T02:34:30;42.31;30.43;58.88;;
77361;Laerm;66427;51.798;10.954;2023-02-15T02:37:10;33.30;28.31;42.25;;
77361;Laerm;66427;51.798;10.954;2023-02-15T02:45:03;38.07;30.78;45.42;;
77361;Laerm;66427;51.798;10.954;2023-02-15T02:47:33;39.49;28.54;49.97;;
77361;Laerm;66427;51.798;10.954;2023-02-15T02:50:03;38.07;31.59;43.93;;
77361;Laerm;66427;51.798;10.954;2023-02-15T02:54:59;37.51;32.53;45.81;;
77361;Laerm;66427;51.798;10.954;2023-02-15T02:57:26;49.73;34.15;65.41;;
77361;Laerm;66427;51.798;10.954;2023-02-15T02:59:52;39.85;29.40;49.74;;
77361;Laerm;66427;51.798;10.954;2023-02-15T03:02:21;35.75;29.00;43.04;;
77361;Laerm;66427;51.798;10.954;2023-02-15T03:04:53;37.15;30.70;45.90;;
77361;Laerm;66427;51.798;10.954;2023-02-15T03:07:22;34.33;29.33;41.91;;
77361;Laerm;66427;51.798;10.954;2023-02-15T03:09:49;35.80;30.33;44.72;;
77361;Laerm;66427;51.798;10.954;2023-02-15T03:12:18;35.57;29.77;40.67;;
77361;Laerm;66427;51.798;10.954;2023-02-15T03:14:46;35.97;29.33;42.37;;
77361;Laerm;66427;51.798;10.954;2023-02-15T03:17:19;37.28;31.65;45.32;;
77361;Laerm;66427;51.798;10.954;2023-02-15T03:19:48;39.51;32.78;50.78;;
77361;Laerm;66427;51.798;10.954;2023-02-15T03:22:20;43.68;38.39;50.67;;
77361;Laerm;66427;51.798;10.954;2023-02-15T03:24:56;41.38;34.82;49.94;;
77361;Laerm;66427;51.798;10.954;2023-02-15T03:27:31;42.90;36.67;51.03;;
77361;Laerm;66427;51.798;10.954;2023-02-15T03:30:01;42.69;33.37;51.96;;
77361;Laerm;66427;51.798;10.954;2023-02-15T03:32:28;41.92;31.56;55.69;;
77361;Laerm;66427;51.798;10.954;2023-02-15T03:34:56;45.02;37.23;62.73;;
77361;Laerm;66427;51.798;10.954;2023-02-15T03:37:29;40.70;33.82;53.18;;
77361;Laerm;66427;51.798;10.954;2023-02-15T03:39:59;42.01;38.35;46.88;;
77361;Laerm;66427;51.798;10.954;2023-02-15T03:42:28;41.40;36.36;49.29;;
77361;Laerm;66427;51.798;10.954;2023-02-15T03:45:00;42.67;37.75;48.90;;
77361;Laerm;66427;51.798;10.954;2023-02-15T03:47:28;43.93;37.90;49.58;;
77361;Laerm;66427;51.798;10.954;2023-02-15T03:49:57;47.92;37.41;61.64;;
77361;Laerm;66427;51.798;10.954;2023-02-15T03:52:26;43.98;40.38;50.24;;
77361;Laerm;66427;51.798;10.954;2023-02-15T03:54:53;43.72;38.60;52.39;;
77361;Laerm;66427;51.798;10.954;2023-02-15T03:57:24;42.53;38.01;49.09;;
77361;Laerm;66427;51.798;10.954;2023-02-15T03:59:54;41.66;36.02;51.83;;
77361;Laerm;66427;51.798;10.954;2023-02-15T04:02:21;42.39;38.96;57.95;;
77361;Laerm;66427;51.798;10.954;2023-02-15T04:04:49;45.05;37.53;59.11;;
77361;Laerm;66427;51.798;10.954;2023-02-15T04:07:16;43.08;37.09;52.21;;
77361;Laerm;66427;51.798;10.954;2023-02-15T04:09:42;42.50;36.20;58.40;;
77361;Laerm;66427;51.798;10.954;2023-02-15T04:12:08;52.37;35.91;69.84;;
77361;Laerm;66427;51.798;10.954;2023-02-15T04:14:33;38.71;35.06;43.52;;
77361;Laerm;66427;51.798;10.954;2023-02-15T04:17:06;45.76;37.51;64.67;;
77361;Laerm;66427;51.798;10.954;2023-02-15T04:19:38;57.14;36.59;77.15;;
77361;Laerm;66427;51.798;10.954;2023-02-15T04:22:06;43.90;36.90;58.90;;
77361;Laerm;66427;51.798;10.954;2023-02-15T04:24:32;51.07;36.95;68.36;;
77361;Laerm;66427;51.798;10.954;2023-02-15T04:27:03;50.68;37.91;63.99;;
77361;Laerm;66427;51.798;10.954;2023-02-15T04:29:31;46.52;39.70;58.89;;
77361;Laerm;66427;51.798;10.954;2023-02-15T04:31:58;53.58;39.08;66.55;;
77361;Laerm;66427;51.798;10.954;2023-02-15T04:34:25;51.17;37.82;66.85;;
77361;Laerm;66427;51.798;10.954;2023-02-15T04:36:51;43.99;38.88;55.84;;
77361;Laerm;66427;51.798;10.954;2023-02-15T04:39:17;43.60;38.55;52.59;;
77361;Laerm;66427;51.798;10.954;2023-02-15T04:41:43;51.43;39.65;63.16;;
77361;Laerm;66427;51.798;10.954;2023-02-15T04:44:15;44.30;39.65;52.52;;
77361;Laerm;66427;51.798;10.954;2023-02-15T04:46:42;42.94;38.30;51.56;;
77361;Laerm;66427;51.798;10.954;2023-02-15T04:49:09;51.87;39.39;68.17;;
77361;Laerm;66427;51.798;10.954;2023-02-15T04:51:35;44.68;39.86;55.98;;
77361;Laerm;66427;51.798;10.954;2023-02-15T04:54:00;53.81;40.71;67.49;;
77361;Laerm;66427;51.798;10.954;2023-02-15T04:56:31;52.35;42.29;67.66;;
77361;Laerm;66427;51.798;10.954;2023-02-15T04:59:03;51.18;43.09;64.49;;
77361;Laerm;66427;51.798;10.954;2023-02-15T05:01:31;48.51;41.19;62.53;;
77361;Laerm;66427;51.798;10.954;2023-02-15T05:03:57;53.91;40.80;71.38;;
77361;Laerm;66427;51.798;10.954;2023-02-15T05:06:24;45.89;41.69;54.96;;
77361;Laerm;66427;51.798;10.954;2023-02-15T05:08:50;50.64;42.36;65.78;;
77361;Laerm;66427;51.798;10.954;2023-02-15T05:11:16;55.98;46.79;67.61;;
77361;Laerm;66427;51.798;10.954;2023-02-15T05:13:42;46.43;42.22;56.23;;
77361;Laerm;66427;51.798;10.954;2023-02-15T05:16:08;46.87;41.05;60.30;;
77361;Laerm;66427;51.798;10.954;2023-02-15T05:18:33;44.12;41.13;51.53;;
77361;Laerm;66427;51.798;10.954;2023-02-15T05:21:02;50.37;42.02;65.82;;
77361;Laerm;66427;51.798;10.954;2023-02-15T05:23:30;52.17;42.13;66.85;;
77361;Laerm;66427;51.798;10.954;2023-02-15T05:25:56;57.12;44.69;69.38;;
77361;Laerm;66427;51.798;10.954;2023-02-15T05:28:22;52.63;43.35;68.05;;
77361;Laerm;66427;51.798;10.954;2023-02-15T05:30:49;54.21;45.44;68.75;;
77361;Laerm;66427;51.798;10.954;2023-02-15T05:33:16;55.77;44.92;67.44;;
77361;Laerm;66427;51.798;10.954;2023-02-15T05:35:42;54.23;46.45;69.37;;
77361;Laerm;66427;51.798;10.954;2023-02-15T05:38:13;55.70;48.76;67.45;;
77361;Laerm;66427;51.798;10.954;2023-02-15T05:40:41;54.46;47.13;65.34;;
77361;Laerm;66427;51.798;10.954;2023-02-15T05:43:07;48.64;45.19;51.98;;
77361;Laerm;66427;51.798;10.954;2023-02-15T05:45:33;52.80;44.87;64.86;;
77361;Laerm;66427;51.798;10.954;2023-02-15T05:47:59;56.99;50.79;67.07;;
77361;Laerm;66427;51.798;10.954;2023-02-15T05:50:24;54.47;50.50;64.77;;
77361;Laerm;66427;51.798;10.954;2023-02-15T05:52:50;55.64;50.49;67.09;;
77361;Laerm;66427;51.798;10.954;2023-02-15T05:55:21;58.89;50.25;72.43;;
77361;Laerm;66427;51.798;10.954;2023-02-15T05:57:49;56.14;46.40;68.48;;
77361;Laerm;66427;51.798;10.954;2023-02-15T06:00:15;57.28;45.35;70.37;;
77361;Laerm;66427;51.798;10.954;2023-02-15T06:02:46;56.44;45.78;66.38;;
77361;Laerm;66427;51.798;10.954;2023-02-15T06:05:13;55.14;51.39;65.00;;
77361;Laerm;66427;51.798;10.954;2023-02-15T06:07:42;59.56;50.95;69.09;;
77361;Laerm;66427;51.798;10.954;2023-02-15T06:10:08;55.90;46.87;67.50;;
77361;Laerm;66427;51.798;10.954;2023-02-15T06:12:34;57.08;46.09;66.77;;
77361;Laerm;66427;51.798;10.954;2023-02-15T06:14:59;57.56;47.04;69.26;;
77361;Laerm;66427;51.798;10.954;2023-02-15T06:17:25;59.77;46.62;74.65;;
77361;Laerm;66427;51.798;10.954;2023-02-15T06:19:51;57.08;47.73;68.30;;
77361;Laerm;66427;51.798;10.954;2023-02-15T06:22:17;60.21;47.04;77.00;;
77361;Laerm;66427;51.798;10.954;2023-02-15T06:24:47;58.29;46.19;67.98;;
77361;Laerm;66427;51.798;10.954;2023-02-15T06:27:14;60.04;47.85;70.73;;
77361;Laerm;66427;51.798;10.954;2023-02-15T06:29:40;58.63;47.90;68.71;;
77361;Laerm;66427;51.798;10.954;2023-02-15T06:32:06;58.86;48.16;68.50;;
77361;Laerm;66427;51.798;10.954;2023-02-15T06:34:32;55.37;45.67;67.03;;
77361;Laerm;66427;51.798;10.954;2023-02-15T06:36:58;60.11;44.89;75.89;;
77361;Laerm;66427;51.798;10.954;2023-02-15T06:39:24;56.57;46.45;67.65;;
77361;Laerm;66427;51.798;10.954;2023-02-15T06:41:54;64.61;47.32;77.99;;
77361;Laerm;66427;51.798;10.954;2023-02-15T06:44:22;59.36;46.59;73.04;;
77361;Laerm;66427;51.798;10.954;2023-02-15T06:46:51;59.72;44.27;75.15;;
77361;Laerm;66427;51.798;10.954;2023-02-15T06:49:22;57.58;45.60;71.74;;
77361;Laerm;66427;51.798;10.954;2023-02-15T06:51:50;55.72;45.42;67.32;;
77361;Laerm;66427;51.798;10.954;2023-02-15T06:54:16;54.65;43.59;66.74;;
77361;Laerm;66427;51.798;10.954;2023-02-15T06:56:42;59.14;43.80;82.87;;
77361;Laerm;66427;51.798;10.954;2023-02-15T06:59:08;53.29;41.92;65.13;;
77361;Laerm;66427;51.798;10.954;2023-02-15T07:01:34;54.09;42.08;66.11;;
77361;Laerm;66427;51.798;10.954;2023-02-15T07:04:00;54.06;41.60;68.41;;
77361;Laerm;66427;51.798;10.954;2023-02-15T07:06:26;62.93;42.93;79.10;;
77361;Laerm;66427;51.798;10.954;2023-02-15T07:08:56;53.91;40.61;68.06;;
77361;Laerm;66427;51.798;10.954;2023-02-15T07:11:25;44.80;40.35;60.04;;
77361;Laerm;66427;51.798;10.954;2023-02-15T07:13:54;47.97;41.17;60.74;;
77361;Laerm;66427;51.798;10.954;2023-02-15T07:16:19;58.19;42.63;67.82;;
77361;Laerm;66427;51.798;10.954;2023-02-15T07:18:45;57.83;43.22;69.45;;
77361;Laerm;66427;51.798;10.954;2023-02-15T07:21:11;56.22;41.43;68.87;;
77361;Laerm;66427;51.798;10.954;2023-02-15T07:23:40;55.81;41.43;67.50;;
77361;Laerm;66427;51.798;10.954;2023-02-15T07:26:06;57.43;41.30;66.75;;
77361;Laerm;66427;51.798;10.954;2023-02-15T07:28:37;56.09;42.84;66.42;;
77361;Laerm;66427;51.798;10.954;2023-02-15T07:31:09;51.45;41.62;67.75;;
77361;Laerm;66427;51.798;10.954;2023-02-15T07:33:37;56.07;42.80;71.23;;
77361;Laerm;66427;51.798;10.954;2023-02-15T07:36:03;55.61;43.96;69.42;;
77361;Laerm;66427;51.798;10.954;2023-02-15T07:38:30;53.35;45.50;64.27;;
77361;Laerm;66427;51.798;10.954;2023-02-15T07:41:00;54.33;43.72;63.51;;
77361;Laerm;66427;51.798;10.954;2023-02-15T07:43:30;54.40;46.50;66.88;;
77361;Laerm;66427;51.798;10.954;2023-02-15T07:46:01;56.16;47.64;65.43;;
77361;Laerm;66427;51.798;10.954;2023-02-15T07:48:27;59.56;47.52;69.79;;
77361;Laerm;66427;51.798;10.954;2023-02-15T07:50:53;55.96;44.98;69.80;;
77361;Laerm;66427;51.798;10.954;2023-02-15T07:53:19;59.72;44.37;72.10;;
77361;Laerm;66427;51.798;10.954;2023-02-15T07:55:48;58.46;46.34;70.04;;
77361;Laerm;66427;51.798;10.954;2023-02-15T07:58:20;55.04;46.38;67.43;;
77361;Laerm;66427;51.798;10.954;2023-02-15T08:00:48;56.81;42.87;72.05;;
77361;Laerm;66427;51.798;10.954;2023-02-15T08:03:13;53.20;45.84;65.67;;
77361;Laerm;66427;51.798;10.954;2023-02-15T08:05:40;61.66;46.19;77.71;;
77361;Laerm;66427;51.798;10.954;2023-02-15T08:08:06;65.39;64.07;70.30;;
77361;Laerm;66427;51.798;10.954;2023-02-15T08:10:33;66.54;45.35;79.16;;
77361;Laerm;66427;51.798;10.954;2023-02-15T08:12:59;52.05;42.46;65.46;;
77361;Laerm;66427;51.798;10.954;2023-02-15T08:15:33;54.29;41.40;68.10;;
77361;Laerm;66427;51.798;10.954;2023-02-15T08:18:05;50.04;40.34;61.92;;
77361;Laerm;66427;51.798;10.954;2023-02-15T08:20:34;52.50;42.58;67.97;;
77361;Laerm;66427;51.798;10.954;2023-02-15T08:23:00;57.96;41.91;73.09;;
77361;Laerm;66427;51.798;10.954;2023-02-15T08:25:25;53.61;42.79;64.55;;
77361;Laerm;66427;51.798;10.954;2023-02-15T08:27:51;54.24;43.08;65.88;;
77361;Laerm;66427;51.798;10.954;2023-02-15T08:30:17;54.36;43.18;64.49;;
77361;Laerm;66427;51.798;10.954;2023-02-15T08:32:47;52.72;42.87;66.11;;
77361;Laerm;66427;51.798;10.954;2023-02-15T08:35:13;58.71;42.46;73.95;;
77361;Laerm;66427;51.798;10.954;2023-02-15T08:37:39;52.77;41.14;64.62;;
77361;Laerm;66427;51.798;10.954;2023-02-15T08:40:09;53.89;42.37;65.43;;
77361;Laerm;66427;51.798;10.954;2023-02-15T08:42:38;53.20;41.88;67.63;;
77361;Laerm;66427;51.798;10.954;2023-02-15T08:45:03;57.39;42.33;71.62;;
77361;Laerm;66427;51.798;10.954;2023-02-15T08:47:29;54.54;39.96;65.05;;
77361;Laerm;66427;51.798;10.954;2023-02-15T08:49:55;53.73;40.62;67.43;;
77361;Laerm;66427;51.798;10.954;2023-02-15T08:52:21;59.25;39.62;74.59;;
77361;Laerm;66427;51.798;10.954;2023-02-15T08:54:48;60.50;37.66;76.29;;
77361;Laerm;66427;51.798;10.954;2023-02-15T08:57:14;53.23;37.16;67.57;;
77361;Laerm;66427;51.798;10.954;2023-02-15T08:59:40;55.33;37.40;68.52;;
77361;Laerm;66427;51.798;10.954;2023-02-15T09:02:06;57.25;41.03;66.28;;
77361;Laerm;66427;51.798;10.954;2023-02-15T09:04:36;61.12;36.72;75.46;;
77361;Laerm;66427;51.798;10.954;2023-02-15T09:07:05;53.95;37.22;67.03;;
77361;Laerm;66427;51.798;10.954;2023-02-15T09:09:31;56.54;39.43;66.09;;
77361;Laerm;66427;51.798;10.954;2023-02-15T09:12:02;63.00;38.77;79.98;;
77361;Laerm;66427;51.798;10.954;2023-02-15T09:14:33;55.85;39.48;67.01;;
77361;Laerm;66427;51.798;10.954;2023-02-15T09:17:01;54.84;39.70;66.49;;
77361;Laerm;66427;51.798;10.954;2023-02-15T09:19:27;54.43;38.75;66.63;;
77361;Laerm;66427;51.798;10.954;2023-02-15T09:21:53;54.61;36.97;67.38;;
77361;Laerm;66427;51.798;10.954;2023-02-15T09:24:19;53.97;37.33;67.19;;
77361;Laerm;66427;51.798;10.954;2023-02-15T09:26:48;59.21;39.79;74.50;;
77361;Laerm;66427;51.798;10.954;2023-02-15T09:29:16;54.10;38.26;69.99;;
77361;Laerm;66427;51.798;10.954;2023-02-15T09:31:43;52.77;39.16;65.57;;
77361;Laerm;66427;51.798;10.954;2023-02-15T09:34:13;59.97;38.14;77.25;;
77361;Laerm;66427;51.798;10.954;2023-02-15T09:36:40;52.13;37.32;66.89;;
77361;Laerm;66427;51.798;10.954;2023-02-15T09:55:02;55.70;38.25;69.95;;
77361;Laerm;66427;51.798;10.954;2023-02-15T09:57:34;54.61;36.67;68.28;;
77361;Laerm;66427;51.798;10.954;2023-02-15T10:13:25;53.32;37.67;64.91;;
77361;Laerm;66427;51.798;10.954;2023-02-15T10:16:04;50.78;36.26;65.68;;
77361;Laerm;66427;51.798;10.954;2023-02-15T10:21:36;57.68;40.06;72.34;;
77361;Laerm;66427;51.798;10.954;2023-02-15T10:24:14;55.14;37.80;67.08;;
77361;Laerm;66427;51.798;10.954;2023-02-15T10:26:43;53.12;36.75;64.11;;
77361;Laerm;66427;51.798;10.954;2023-02-15T10:29:14;54.29;36.87;66.14;;
77361;Laerm;66427;51.798;10.954;2023-02-15T10:31:51;57.26;37.72;68.20;;
77361;Laerm;66427;51.798;10.954;2023-02-15T10:34:22;56.41;36.29;68.51;;
77361;Laerm;66427;51.798;10.954;2023-02-15T10:39:26;57.03;39.30;68.09;;
77361;Laerm;66427;51.798;10.954;2023-02-15T10:47:22;55.89;37.49;69.14;;
77361;Laerm;66427;51.798;10.954;2023-02-15T10:55:13;65.61;41.92;80.61;;
77361;Laerm;66427;51.798;10.954;2023-02-15T11:00:19;53.64;37.90;68.93;;
77361;Laerm;66427;51.798;10.954;2023-02-15T11:03:02;53.56;36.24;66.61;;
77361;Laerm;66427;51.798;10.954;2023-02-15T11:05:50;54.24;35.28;70.85;;
77361;Laerm;66427;51.798;10.954;2023-02-15T11:08:27;56.95;35.32;72.73;;
77361;Laerm;66427;51.798;10.954;2023-02-15T11:10:58;53.44;36.90;67.76;;
77361;Laerm;66427;51.798;10.954;2023-02-15T11:13:25;61.13;36.45;76.97;;
77361;Laerm;66427;51.798;10.954;2023-02-15T11:16:00;59.60;36.65;73.70;;
77361;Laerm;66427;51.798;10.954;2023-02-15T11:23:30;60.68;41.11;74.38;;
77361;Laerm;66427;51.798;10.954;2023-02-15T11:26:00;50.48;36.69;64.30;;
77361;Laerm;66427;51.798;10.954;2023-02-15T11:28:38;54.39;36.21;67.43;;
77361;Laerm;66427;51.798;10.954;2023-02-15T11:31:17;51.93;37.11;64.80;;
77361;Laerm;66427;51.798;10.954;2023-02-15T11:33:47;57.65;39.11;71.83;;
77361;Laerm;66427;51.798;10.954;2023-02-15T11:36:18;53.77;36.30;65.64;;
77361;Laerm;66427;51.798;10.954;2023-02-15T11:38:56;50.60;37.59;64.10;;
77361;Laerm;66427;51.798;10.954;2023-02-15T11:41:27;53.35;37.57;68.32;;
77361;Laerm;66427;51.798;10.954;2023-02-15T11:46:25;51.12;35.99;64.42;;
77361;Laerm;66427;51.798;10.954;2023-02-15T11:48:51;48.45;36.02;63.54;;
77361;Laerm;66427;51.798;10.954;2023-02-15T11:51:18;54.95;36.05;72.28;;
77361;Laerm;66427;51.798;10.954;2023-02-15T11:53:46;57.85;37.17;72.90;;
77361;Laerm;66427;51.798;10.954;2023-02-15T11:56:19;54.63;37.43;75.33;;
77361;Laerm;66427;51.798;10.954;2023-02-15T11:58:49;58.55;39.04;69.03;;
77361;Laerm;66427;51.798;10.954;2023-02-15T12:03:52;56.77;39.64;71.89;;
77361;Laerm;66427;51.798;10.954;2023-02-15T12:06:25;55.63;38.88;72.06;;
77361;Laerm;66427;51.798;10.954;2023-02-15T12:09:03;52.33;38.63;67.27;;
77361;Laerm;66427;51.798;10.954;2023-02-15T12:11:36;53.41;36.21;64.63;;
77361;Laerm;66427;51.798;10.954;2023-02-15T12:14:05;55.71;40.08;67.83;;
77361;Laerm;66427;51.798;10.954;2023-02-15T12:16:45;52.45;39.99;67.15;;
77361;Laerm;66427;51.798;10.954;2023-02-15T12:19:13;47.74;36.35;65.40;;
77361;Laerm;66427;51.798;10.954;2023-02-15T12:21:43;57.43;35.35;72.00;;
77361;Laerm;66427;51.798;10.954;2023-02-15T12:24:17;55.26;38.16;65.04;;
77361;Laerm;66427;51.798;10.954;2023-02-15T12:26:55;51.65;37.29;61.80;;
77361;Laerm;66427;51.798;10.954;2023-02-15T12:29:21;58.48;41.21;70.18;;
77361;Laerm;66427;51.798;10.954;2023-02-15T12:31:50;54.90;36.25;68.92;;
77361;Laerm;66427;51.798;10.954;2023-02-15T12:34:25;59.52;43.11;73.00;;
77361;Laerm;66427;51.798;10.954;2023-02-15T12:36:53;53.78;35.90;65.87;;
77361;Laerm;66427;51.798;10.954;2023-02-15T12:39:21;62.18;39.20;76.95;;
77361;Laerm;66427;51.798;10.954;2023-02-15T12:44:26;55.14;36.45;66.13;;
77361;Laerm;66427;51.798;10.954;2023-02-15T12:46:56;57.20;39.97;74.44;;
77361;Laerm;66427;51.798;10.954;2023-02-15T12:49:25;60.10;38.84;77.47;;
77361;Laerm;66427;51.798;10.954;2023-02-15T12:52:03;55.09;39.42;68.42;;
77361;Laerm;66427;51.798;10.954;2023-02-15T12:54:36;53.35;38.80;68.31;;
77361;Laerm;66427;51.798;10.954;2023-02-15T12:57:17;57.09;41.37;68.47;;
77361;Laerm;66427;51.798;10.954;2023-02-15T12:59:56;55.23;37.62;66.82;;
77361;Laerm;66427;51.798;10.954;2023-02-15T13:04:51;48.76;36.16;64.09;;
77361;Laerm;66427;51.798;10.954;2023-02-15T13:07:18;48.91;37.47;63.47;;
77361;Laerm;66427;51.798;10.954;2023-02-15T13:09:44;48.80;38.25;64.52;;
77361;Laerm;66427;51.798;10.954;2023-02-15T13:12:23;52.35;38.42;64.91;;
77361;Laerm;66427;51.798;10.954;2023-02-15T13:14:51;57.61;39.49;68.05;;
77361;Laerm;66427;51.798;10.954;2023-02-15T13:17:28;56.13;40.50;66.42;;
77361;Laerm;66427;51.798;10.954;2023-02-15T13:20:02;51.94;38.76;66.28;;
77361;Laerm;66427;51.798;10.954;2023-02-15T13:22:38;44.91;39.24;55.99;;
77361;Laerm;66427;51.798;10.954;2023-02-15T13:25:10;54.29;39.92;69.85;;
77361;Laerm;66427;51.798;10.954;2023-02-15T13:27:42;50.81;36.32;63.31;;
77361;Laerm;66427;51.798;10.954;2023-02-15T13:30:25;52.07;37.93;65.25;;
77361;Laerm;66427;51.798;10.954;2023-02-15T13:32:54;56.65;37.79;68.61;;
77361;Laerm;66427;51.798;10.954;2023-02-15T13:35:23;56.28;36.92;73.10;;
77361;Laerm;66427;51.798;10.954;2023-02-15T13:38:05;56.21;37.46;66.56;;
77361;Laerm;66427;51.798;10.954;2023-02-15T13:40:37;56.24;39.42;67.62;;
77361;Laerm;66427;51.798;10.954;2023-02-15T13:45:40;51.93;37.41;62.12;;
77361;Laerm;66427;51.798;10.954;2023-02-15T13:48:15;56.44;37.52;68.51;;
77361;Laerm;66427;51.798;10.954;2023-02-15T13:53:35;52.84;36.07;68.14;;
77361;Laerm;66427;51.798;10.954;2023-02-15T13:56:16;55.56;38.26;67.84;;
77361;Laerm;66427;51.798;10.954;2023-02-15T13:58:58;54.30;37.20;64.95;;
77361;Laerm;66427;51.798;10.954;2023-02-15T14:19:35;56.34;38.44;69.11;;
77361;Laerm;66427;51.798;10.954;2023-02-15T14:24:44;57.70;38.79;74.28;;
77361;Laerm;66427;51.798;10.954;2023-02-15T14:29:49;56.08;37.69;65.96;;
77361;Laerm;66427;51.798;10.954;2023-02-15T14:32:27;54.96;36.79;68.32;;
77361;Laerm;66427;51.798;10.954;2023-02-15T14:35:01;57.18;37.52;72.11;;
77361;Laerm;66427;51.798;10.954;2023-02-15T14:37:33;54.10;36.93;70.63;;
77361;Laerm;66427;51.798;10.954;2023-02-15T14:47:36;53.73;37.34;65.15;;
77361;Laerm;66427;51.798;10.954;2023-02-15T14:50:35;55.90;39.32;67.96;;
77361;Laerm;66427;51.798;10.954;2023-02-15T14:53:14;53.73;39.73;74.61;;
77361;Laerm;66427;51.798;10.954;2023-02-15T14:55:42;57.40;38.88;72.69;;
77361;Laerm;66427;51.798;10.954;2023-02-15T14:58:12;56.05;37.97;66.22;;
77361;Laerm;66427;51.798;10.954;2023-02-15T15:00:41;47.28;36.29;61.18;;
77361;Laerm;66427;51.798;10.954;2023-02-15T15:03:10;48.85;38.05;62.18;;
77361;Laerm;66427;51.798;10.954;2023-02-15T15:05:46;64.08;42.93;80.47;;
77361;Laerm;66427;51.798;10.954;2023-02-15T15:13:58;55.15;38.45;65.59;;
77361;Laerm;66427;51.798;10.954;2023-02-15T15:18:50;56.21;38.38;68.36;;
77361;Laerm;66427;51.798;10.954;2023-02-15T15:21:51;60.16;43.30;69.43;;
77361;Laerm;66427;51.798;10.954;2023-02-15T15:24:01;57.89;38.27;67.00;;
77361;Laerm;66427;51.798;10.954;2023-02-15T15:26:28;57.18;38.66;70.88;;
77361;Laerm;66427;51.798;10.954;2023-02-15T15:28:56;56.98;38.01;66.86;;
77361;Laerm;66427;51.798;10.954;2023-02-15T15:31:31;58.35;37.82;67.14;;
77361;Laerm;66427;51.798;10.954;2023-02-15T15:34:17;58.46;38.30;67.46;;
77361;Laerm;66427;51.798;10.954;2023-02-15T15:44:53;58.39;36.95;76.21;;
77361;Laerm;66427;51.798;10.954;2023-02-15T15:50:15;54.26;37.36;65.22;;
77361;Laerm;66427;51.798;10.954;2023-02-15T15:52:49;51.85;36.71;64.75;;
77361;Laerm;66427;51.798;10.954;2023-02-15T15:55:19;57.02;38.74;80.59;;
77361;Laerm;66427;51.798;10.954;2023-02-15T15:57:47;49.10;35.28;64.16;;
77361;Laerm;66427;51.798;10.954;2023-02-15T16:02:52;55.73;38.71;65.82;;